createdAt,value
2019-01-24T00:02:10.125Z,9.07
2019-01-24T00:04:38.175Z,9.80
2019-01-24T00:07:06.205Z,9.60
2019-01-24T00:09:34.220Z,9.40
2019-01-24T00:12:02.305Z,9.30
2019-01-24T00:14:30.359Z,10.13
2019-01-24T00:16:58.408Z,9.30
2019-01-24T00:19:26.436Z,9.87
2019-01-24T00:21:54.577Z,9.00
2019-01-24T00:24:22.693Z,9.73
2019-01-24T00:26:50.683Z,8.70
2019-01-24T00:29:18.622Z,8.40
2019-01-24T00:31:46.720Z,8.20
2019-01-24T00:34:14.731Z,8.03
2019-01-24T00:36:43.929Z,8.40
2019-01-24T00:39:12.118Z,8.33
2019-01-24T00:41:40.063Z,7.97
2019-01-24T00:44:08.088Z,8.20
2019-01-24T00:46:36.231Z,8.50
2019-01-24T00:49:04.471Z,7.63
2019-01-24T00:51:32.430Z,7.93
2019-01-24T00:54:00.527Z,7.60
2019-01-24T00:56:28.596Z,7.63
2019-01-24T00:58:58.327Z,7.53
2019-01-24T01:01:26.382Z,6.20
2019-01-24T01:03:54.681Z,7.07
2019-01-24T01:06:22.617Z,7.07
2019-01-24T01:08:50.544Z,7.63
2019-01-24T01:11:18.436Z,7.03
2019-01-24T01:13:47.591Z,7.07
2019-01-24T01:16:15.515Z,7.30
2019-01-24T01:18:43.451Z,6.53
2019-01-24T01:21:11.435Z,6.53
2019-01-24T01:23:41.964Z,7.10
2019-01-24T01:26:09.919Z,6.50
2019-01-24T01:28:37.827Z,6.63
2019-01-24T01:31:05.970Z,6.33
2019-01-24T01:33:33.999Z,6.77
2019-01-24T01:36:03.979Z,6.80
2019-01-24T01:38:32.002Z,6.70
2019-01-24T01:41:01.815Z,6.63
2019-01-24T01:43:29.957Z,6.47
2019-01-24T01:46:01.147Z,6.93
2019-01-24T01:48:29.100Z,6.40
2019-01-24T01:50:57.039Z,6.23
2019-01-24T01:53:25.100Z,5.60
2019-01-24T01:55:53.189Z,6.00
2019-01-24T01:58:21.133Z,5.97
2019-01-24T02:00:49.139Z,5.93
2019-01-24T02:03:17.111Z,6.37
2019-01-24T02:05:45.127Z,6.47
2019-01-24T02:08:13.052Z,6.00
2019-01-24T02:10:41.038Z,5.60
2019-01-24T02:13:08.963Z,6.27
2019-01-24T02:15:36.884Z,5.70
2019-01-24T02:18:05.186Z,5.70
2019-01-24T02:20:33.275Z,5.67
2019-01-24T02:23:01.261Z,5.93
2019-01-24T02:25:29.262Z,6.20
2019-01-24T02:27:57.366Z,6.07
2019-01-24T02:30:26.984Z,6.30
2019-01-24T02:32:54.897Z,6.43
2019-01-24T02:35:23.096Z,5.63
2019-01-24T02:37:51.173Z,5.57
2019-01-24T02:40:19.400Z,5.90
2019-01-24T02:42:47.331Z,5.80
2019-01-24T02:45:18.833Z,6.10
2019-01-24T02:47:46.975Z,5.97
2019-01-24T02:50:16.032Z,7.17
2019-01-24T02:52:44.021Z,7.90
2019-01-24T02:55:16.101Z,6.63
2019-01-24T02:57:44.229Z,6.13
2019-01-24T03:00:13.923Z,6.63
2019-01-24T03:02:42.087Z,7.60
2019-01-24T03:05:11.233Z,6.83
2019-01-24T03:07:39.202Z,7.70
2019-01-24T03:10:08.197Z,7.13
2019-01-24T03:12:37.180Z,6.53
2019-01-24T03:15:05.876Z,7.80
2019-01-24T03:17:34.139Z,6.73
2019-01-24T03:20:02.113Z,7.83
2019-01-24T03:22:30.175Z,8.43
2019-01-24T03:24:58.223Z,8.40
2019-01-24T03:27:26.180Z,8.53
2019-01-24T03:29:54.117Z,7.97
2019-01-24T03:32:22.137Z,7.40
2019-01-24T03:34:50.171Z,6.50
2019-01-24T03:37:18.183Z,6.87
2019-01-24T03:39:48.488Z,7.73
2019-01-24T03:42:19.751Z,7.13
2019-01-24T03:44:47.700Z,6.97
2019-01-24T03:47:15.793Z,6.77
2019-01-24T03:49:43.827Z,6.87
2019-01-24T03:52:14.525Z,7.33
2019-01-24T03:54:42.439Z,6.50
2019-01-24T03:57:10.563Z,7.23
2019-01-24T03:59:38.618Z,7.43
2019-01-24T04:02:06.575Z,7.43
2019-01-24T04:04:34.587Z,6.93
2019-01-24T04:07:02.559Z,7.70
2019-01-24T04:09:30.514Z,7.70
2019-01-24T04:11:58.563Z,8.27
2019-01-24T04:14:28.703Z,8.50
2019-01-24T04:16:56.737Z,10.07
2019-01-24T04:19:27.363Z,9.07
2019-01-24T04:21:55.285Z,8.80
2019-01-24T04:24:23.358Z,9.13
2019-01-24T04:26:53.133Z,8.77
2019-01-24T04:29:21.143Z,9.20
2019-01-24T04:31:49.177Z,8.17
2019-01-24T04:34:17.327Z,8.63
2019-01-24T04:36:45.320Z,8.37
2019-01-24T04:39:13.262Z,8.83
2019-01-24T04:41:41.189Z,8.97
2019-01-24T04:44:09.261Z,9.13
2019-01-24T04:46:39.710Z,9.07
2019-01-24T04:49:08.767Z,8.97
2019-01-24T04:51:39.240Z,9.90
2019-01-24T04:54:07.350Z,9.27
2019-01-24T04:56:38.022Z,8.60
2019-01-24T04:59:05.994Z,8.67
2019-01-24T05:01:35.817Z,9.70
2019-01-24T05:04:03.885Z,9.17
2019-01-24T05:06:31.844Z,8.50
2019-01-24T05:08:59.895Z,8.50
2019-01-24T05:11:28.029Z,8.90
2019-01-24T05:13:56.134Z,8.67
2019-01-24T05:16:24.154Z,8.37
2019-01-24T05:18:52.197Z,8.40
2019-01-24T05:21:20.232Z,8.30
2019-01-24T05:23:51.552Z,8.53
2019-01-24T05:26:19.623Z,8.80
2019-01-24T05:28:47.548Z,7.97
2019-01-24T05:31:16.003Z,7.97
2019-01-24T05:33:44.033Z,7.60
2019-01-24T05:36:12.161Z,8.23
2019-01-24T05:38:40.289Z,8.87
2019-01-24T05:41:08.322Z,8.60
2019-01-24T05:43:36.352Z,8.10
2019-01-24T05:46:04.289Z,7.27
2019-01-24T05:48:32.288Z,6.60
2019-01-24T05:51:04.077Z,6.40
2019-01-24T05:53:32.147Z,6.60
2019-01-24T05:56:00.395Z,7.40
2019-01-24T05:58:28.504Z,7.70
2019-01-24T06:00:58.249Z,7.47
2019-01-24T06:03:26.159Z,8.67
2019-01-24T06:05:54.188Z,7.60
2019-01-24T06:08:22.256Z,7.63
2019-01-24T06:10:50.228Z,7.57
2019-01-24T06:13:19.804Z,7.57
2019-01-24T06:15:47.803Z,7.10
2019-01-24T06:18:15.769Z,7.40
2019-01-24T06:20:43.755Z,7.20
2019-01-24T06:23:14.460Z,6.40
2019-01-24T06:25:42.507Z,7.20
2019-01-24T06:28:10.544Z,6.87
2019-01-24T06:30:38.616Z,10.57
2019-01-24T06:33:06.592Z,12.37
2019-01-24T06:35:34.835Z,8.17
2019-01-24T06:38:02.820Z,8.97
2019-01-24T06:40:32.904Z,8.30
2019-01-24T06:43:00.974Z,7.87
2019-01-24T06:45:29.166Z,6.90
2019-01-24T06:47:57.392Z,7.20
2019-01-24T06:50:25.683Z,6.97
2019-01-24T06:52:53.759Z,7.50
2019-01-24T06:55:26.002Z,8.13
2019-01-24T06:57:53.982Z,7.97
2019-01-24T07:00:21.997Z,7.93
2019-01-24T07:02:50.264Z,6.97
2019-01-24T07:05:18.371Z,7.43
2019-01-24T07:07:46.455Z,6.90
2019-01-24T07:10:15.468Z,7.00
2019-01-24T07:12:43.528Z,7.10
2019-01-24T07:15:13.036Z,6.87
2019-01-24T07:17:41.063Z,6.80
2019-01-24T07:20:11.309Z,8.03
2019-01-24T07:22:39.394Z,7.30
2019-01-24T07:25:08.704Z,7.43
2019-01-24T07:27:37.010Z,8.10
2019-01-24T07:30:06.317Z,8.67
2019-01-24T07:32:34.476Z,8.10
2019-01-24T07:35:11.821Z,8.37
2019-01-24T07:37:40.075Z,7.10
2019-01-24T07:40:08.805Z,7.77
2019-01-24T07:42:38.085Z,7.23
2019-01-24T07:45:08.205Z,6.83
2019-01-24T07:47:36.629Z,7.87
2019-01-24T07:50:05.415Z,8.53
2019-01-24T07:52:33.777Z,11.37
2019-01-24T07:55:01.885Z,24.73
2019-01-24T07:57:31.421Z,12.53
2019-01-24T07:59:59.504Z,12.57
2019-01-24T08:02:27.734Z,15.60
2019-01-24T08:04:56.016Z,15.73
2019-01-24T08:07:24.733Z,12.73
2019-01-24T08:09:53.186Z,13.23
2019-01-24T08:12:21.786Z,12.27
2019-01-24T08:14:50.159Z,12.17
2019-01-24T08:17:18.661Z,12.17
2019-01-24T08:19:47.130Z,9.77
2019-01-24T08:22:16.550Z,8.00
2019-01-24T08:24:44.918Z,8.03
2019-01-24T08:27:13.503Z,9.33
2019-01-24T08:29:42.113Z,8.13
2019-01-24T08:32:13.498Z,8.40
2019-01-24T08:34:42.019Z,12.77
2019-01-24T08:37:10.620Z,11.03
2019-01-24T08:39:39.032Z,10.43
2019-01-24T08:42:07.546Z,9.83
2019-01-24T08:44:35.868Z,9.63
2019-01-24T08:47:04.267Z,9.43
2019-01-24T08:49:32.915Z,8.43
2019-01-24T08:52:01.276Z,8.63
2019-01-24T08:54:29.694Z,9.63
2019-01-24T08:57:02.905Z,10.33
2019-01-24T08:59:34.108Z,10.10
2019-01-24T09:02:03.068Z,10.20
2019-01-24T09:04:32.974Z,9.93
2019-01-24T09:07:01.251Z,10.03
2019-01-24T09:09:29.452Z,9.07
2019-01-24T09:11:57.632Z,8.13
2019-01-24T09:14:25.955Z,8.80
2019-01-24T09:16:54.380Z,8.00
2019-01-24T09:19:22.797Z,8.20
2019-01-24T09:21:51.055Z,8.47
2019-01-24T09:24:21.686Z,8.73
2019-01-24T09:26:52.354Z,8.27
2019-01-24T09:29:20.793Z,8.07
2019-01-24T09:31:49.030Z,8.37
2019-01-24T09:34:17.275Z,7.70
2019-01-24T09:36:45.528Z,8.03
2019-01-24T09:39:13.817Z,7.70
2019-01-24T09:41:42.187Z,8.30
2019-01-24T09:44:10.423Z,8.07
2019-01-24T09:46:38.551Z,8.00
2019-01-24T09:49:06.701Z,8.87
2019-01-24T09:51:34.870Z,8.17
2019-01-24T09:54:02.889Z,7.60
2019-01-24T09:56:30.985Z,8.40
2019-01-24T09:58:58.949Z,8.67
2019-01-24T10:01:26.992Z,7.37
2019-01-24T10:03:55.087Z,8.30
2019-01-24T10:06:23.389Z,8.43
2019-01-24T10:08:51.432Z,8.73
2019-01-24T10:11:23.495Z,8.70
2019-01-24T10:13:49.080Z,9.40
2019-01-24T10:16:17.227Z,8.73
2019-01-24T10:18:45.286Z,10.80
2019-01-24T10:21:13.319Z,9.20
2019-01-24T10:23:41.501Z,8.93
2019-01-24T10:26:09.565Z,8.97
2019-01-24T10:28:37.585Z,8.53
2019-01-24T10:31:05.559Z,9.33
2019-01-24T10:33:33.549Z,8.90
2019-01-24T10:36:01.594Z,8.70
2019-01-24T10:38:29.532Z,9.23
2019-01-24T10:40:57.548Z,8.60
2019-01-24T10:43:25.466Z,9.50
2019-01-24T10:45:53.498Z,8.83
2019-01-24T10:48:21.502Z,8.67
2019-01-24T10:50:49.503Z,8.83
2019-01-24T10:53:17.587Z,9.87
2019-01-24T10:55:45.613Z,10.07
2019-01-24T10:58:13.636Z,13.07
2019-01-24T11:00:42.597Z,12.33
2019-01-24T11:03:11.919Z,11.40
2019-01-24T11:05:40.069Z,10.80
2019-01-24T11:08:08.067Z,10.67
2019-01-24T11:10:36.115Z,10.97
2019-01-24T11:13:04.244Z,10.90
2019-01-24T11:15:32.250Z,11.13
2019-01-24T11:18:00.259Z,10.93
2019-01-24T11:20:28.288Z,11.37
2019-01-24T11:22:56.408Z,12.40
2019-01-24T11:25:24.628Z,13.83
2019-01-24T11:27:52.574Z,15.37
2019-01-24T11:30:21.985Z,15.23
2019-01-24T11:32:49.970Z,14.57
2019-01-24T11:35:18.295Z,13.07
2019-01-24T11:37:48.087Z,12.53
2019-01-24T11:40:16.463Z,13.67
2019-01-24T11:42:44.583Z,13.93
2019-01-24T11:45:13.080Z,12.47
2019-01-24T11:47:41.243Z,12.57
2019-01-24T11:50:10.878Z,13.57
2019-01-24T11:52:38.849Z,13.30
2019-01-24T11:55:07.188Z,13.10
2019-01-24T11:57:35.116Z,12.67
2019-01-24T12:00:03.233Z,12.73
2019-01-24T12:02:31.268Z,12.20
2019-01-24T12:04:59.280Z,13.20
2019-01-24T12:07:27.262Z,12.67
2019-01-24T12:09:55.221Z,12.20
2019-01-24T12:12:23.528Z,12.47
2019-01-24T12:14:51.540Z,12.30
2019-01-24T12:17:19.589Z,12.67
2019-01-24T12:19:47.522Z,11.80
2019-01-24T12:22:15.464Z,11.67
2019-01-24T12:24:43.472Z,13.60
2019-01-24T12:27:11.557Z,12.47
2019-01-24T12:29:39.815Z,13.60
2019-01-24T12:32:07.809Z,13.03
2019-01-24T12:34:35.851Z,13.03
2019-01-24T12:37:03.904Z,13.57
2019-01-24T12:39:31.974Z,13.47
2019-01-24T12:41:59.934Z,14.20
2019-01-24T12:44:27.855Z,12.40
2019-01-24T12:46:55.956Z,13.13
2019-01-24T12:49:24.126Z,13.87
2019-01-24T12:51:52.115Z,14.67
2019-01-24T12:54:20.157Z,14.07
2019-01-24T12:56:49.567Z,14.80
2019-01-24T12:59:17.657Z,13.57
2019-01-24T13:01:45.685Z,13.57
2019-01-24T13:04:13.822Z,13.83
2019-01-24T13:06:41.850Z,12.83
2019-01-24T13:09:09.868Z,14.37
2019-01-24T13:11:37.880Z,14.07
2019-01-24T13:14:05.944Z,13.70
2019-01-24T13:16:33.906Z,13.90
2019-01-24T13:19:01.924Z,14.33
2019-01-24T13:21:29.965Z,14.40
2019-01-24T13:24:00.063Z,15.43
2019-01-24T13:26:37.190Z,14.93
2019-01-24T13:29:05.286Z,14.60
2019-01-24T13:31:33.417Z,14.57
2019-01-24T13:34:01.505Z,14.57
2019-01-24T13:36:29.509Z,14.60
2019-01-24T13:38:57.542Z,12.73
2019-01-24T13:41:25.673Z,13.83
2019-01-24T13:43:53.738Z,14.43
2019-01-24T13:46:21.773Z,13.23
2019-01-24T13:48:49.770Z,14.30
2019-01-24T13:51:17.778Z,14.23
2019-01-24T13:53:45.843Z,13.87
2019-01-24T13:56:13.855Z,13.53
2019-01-24T13:58:41.880Z,14.43
2019-01-24T14:01:09.896Z,13.90
2019-01-24T14:03:49.745Z,13.60
2019-01-24T14:06:17.778Z,14.63
2019-01-24T14:08:45.770Z,14.13
2019-01-24T14:11:17.990Z,14.70
2019-01-24T14:13:46.336Z,13.83
2019-01-24T14:16:14.358Z,14.03
2019-01-24T14:18:42.420Z,13.90
2019-01-24T14:21:10.396Z,13.23
2019-01-24T14:23:38.330Z,15.53
2019-01-24T14:26:06.348Z,13.63
2019-01-24T14:28:34.276Z,14.03
2019-01-24T14:31:02.311Z,14.80
2019-01-24T14:33:30.352Z,14.67
2019-01-24T14:35:59.121Z,15.00
2019-01-24T14:38:27.324Z,13.73
2019-01-24T14:40:55.303Z,14.70
2019-01-24T14:43:23.243Z,14.50
2019-01-24T14:45:51.251Z,14.30
2019-01-24T14:48:19.329Z,14.63
2019-01-24T14:50:47.480Z,14.83
2019-01-24T14:53:15.496Z,14.00
2019-01-24T14:55:43.875Z,11.77
2019-01-24T14:58:11.888Z,13.83
2019-01-24T15:00:41.544Z,15.27
2019-01-24T15:03:09.512Z,15.53
2019-01-24T15:05:37.572Z,15.47
2019-01-24T15:08:05.914Z,15.57
2019-01-24T15:10:34.289Z,15.87
2019-01-24T15:13:02.283Z,16.07
2019-01-24T15:15:30.460Z,16.50
2019-01-24T15:17:58.466Z,18.37
2019-01-24T15:20:26.623Z,16.40
2019-01-24T15:22:54.655Z,20.83
2019-01-24T15:25:22.669Z,18.83
2019-01-24T15:27:50.656Z,16.77
2019-01-24T15:30:19.902Z,16.47
2019-01-24T15:32:48.042Z,16.20
2019-01-24T15:35:16.029Z,18.80
2019-01-24T15:37:44.173Z,18.30
2019-01-24T15:40:16.461Z,16.50
2019-01-24T15:42:44.522Z,16.43
2019-01-24T15:45:12.615Z,14.77
2019-01-24T15:47:40.569Z,15.23
2019-01-24T15:50:09.388Z,15.07
2019-01-24T15:52:37.542Z,15.87
2019-01-24T15:55:06.127Z,22.33
2019-01-24T15:57:34.146Z,17.67
2019-01-24T16:00:02.053Z,15.57
2019-01-24T16:02:30.449Z,15.23
2019-01-24T16:04:58.572Z,15.07
2019-01-24T16:07:26.596Z,17.97
2019-01-24T16:09:54.618Z,15.13
2019-01-24T16:12:22.691Z,16.83
2019-01-24T16:14:50.762Z,24.17
2019-01-24T16:17:18.748Z,24.27
2019-01-24T16:19:46.808Z,25.03
2019-01-24T16:22:14.841Z,22.47
2019-01-24T16:24:42.772Z,21.87
2019-01-24T16:27:10.854Z,20.00
2019-01-24T16:29:38.821Z,18.47
2019-01-24T16:32:06.920Z,21.47
2019-01-24T16:34:35.074Z,20.13
2019-01-24T16:37:03.164Z,26.97
2019-01-24T16:39:31.245Z,21.57
2019-01-24T16:41:59.379Z,22.77
2019-01-24T16:44:27.397Z,25.30
2019-01-24T16:46:55.552Z,23.03
2019-01-24T16:49:23.842Z,37.47
2019-01-24T16:51:51.859Z,21.50
2019-01-24T16:54:20.040Z,17.00
2019-01-24T16:56:48.070Z,14.77
2019-01-24T16:59:16.082Z,14.77
2019-01-24T17:01:44.251Z,14.00
2019-01-24T17:04:12.451Z,14.40
2019-01-24T17:06:40.555Z,14.47
2019-01-24T17:09:09.937Z,14.33
2019-01-24T17:11:39.970Z,14.00
2019-01-24T17:14:08.144Z,13.43
2019-01-24T17:16:36.404Z,13.33
2019-01-24T17:19:04.788Z,14.27
2019-01-24T17:21:32.822Z,14.30
2019-01-24T17:24:00.995Z,14.87
2019-01-24T17:26:29.005Z,14.53
2019-01-24T17:28:57.044Z,13.37
2019-01-24T17:31:25.069Z,13.90
2019-01-24T17:33:53.015Z,13.93
2019-01-24T17:36:21.012Z,13.93
2019-01-24T17:38:49.004Z,15.50
2019-01-24T17:41:17.024Z,13.60
2019-01-24T17:43:45.209Z,15.97
2019-01-24T17:46:13.276Z,15.20
2019-01-24T17:48:41.219Z,14.87
2019-01-24T17:51:09.272Z,14.63
2019-01-24T17:53:37.305Z,15.13
2019-01-24T17:56:06.532Z,15.10
2019-01-24T17:58:34.560Z,14.77
2019-01-24T18:01:02.704Z,15.20
2019-01-24T18:03:30.682Z,14.07
2019-01-24T18:05:58.624Z,13.87
2019-01-24T18:08:31.218Z,14.47
2019-01-24T18:10:56.241Z,18.73
2019-01-24T18:13:24.349Z,15.77
2019-01-24T18:15:52.459Z,15.40
2019-01-24T18:18:22.344Z,15.67
2019-01-24T18:20:50.473Z,14.23
2019-01-24T18:23:19.910Z,14.93
2019-01-24T18:25:47.985Z,15.90
2019-01-24T18:28:16.066Z,15.97
2019-01-24T18:30:44.165Z,16.23
2019-01-24T18:33:15.495Z,15.13
2019-01-24T18:35:43.536Z,15.00
2019-01-24T18:38:14.195Z,14.33
2019-01-24T18:40:43.140Z,13.90
2019-01-24T18:43:21.697Z,13.80
2019-01-24T18:45:50.226Z,15.23
2019-01-24T18:48:18.557Z,15.17
2019-01-24T18:50:46.580Z,16.40
2019-01-24T18:53:14.648Z,15.50
2019-01-24T18:55:42.723Z,17.30
2019-01-24T18:58:10.913Z,15.73
2019-01-24T19:00:41.556Z,15.57
2019-01-24T19:03:09.965Z,15.93
2019-01-24T19:05:38.135Z,17.70
2019-01-24T19:08:06.278Z,19.40
2019-01-24T19:10:34.700Z,19.47
2019-01-24T19:13:05.339Z,17.23
2019-01-24T19:15:33.445Z,18.77
2019-01-24T19:18:01.651Z,17.20
2019-01-24T19:20:29.896Z,17.80
2019-01-24T19:22:59.091Z,16.93
2019-01-24T19:25:29.452Z,17.55
2019-01-24T19:27:57.821Z,16.37
2019-01-24T19:30:27.328Z,15.33
2019-01-24T19:32:56.147Z,14.97
2019-01-24T19:35:24.348Z,15.13
2019-01-24T19:37:52.763Z,14.07
2019-01-24T19:40:21.452Z,14.43
2019-01-24T19:42:49.704Z,14.20
2019-01-24T19:45:19.313Z,14.73
2019-01-24T19:47:47.721Z,14.87
2019-01-24T19:50:20.281Z,14.70
2019-01-24T19:52:48.748Z,15.10
2019-01-24T19:55:17.285Z,15.20
2019-01-24T19:57:46.898Z,13.93
2019-01-24T20:00:29.083Z,15.33
2019-01-24T20:02:59.371Z,13.73
2019-01-24T20:05:28.990Z,14.83
2019-01-24T20:11:14.032Z,14.50
2019-01-24T20:14:04.368Z,15.03
2019-01-24T20:17:19.402Z,14.20
2019-01-24T20:19:50.041Z,13.93
2019-01-24T20:22:23.413Z,14.27
2019-01-24T20:25:33.448Z,14.40
2019-01-24T20:28:07.740Z,13.37
2019-01-24T20:30:41.050Z,14.80
2019-01-24T20:33:11.516Z,14.20
2019-01-24T20:35:50.091Z,14.20
2019-01-24T20:38:26.051Z,13.87
2019-01-24T20:40:54.482Z,13.93
2019-01-24T20:43:25.724Z,14.23
2019-01-24T20:45:54.425Z,14.53
2019-01-24T20:48:22.423Z,14.60
2019-01-24T20:50:50.599Z,14.03
2019-01-24T20:53:18.589Z,14.73
2019-01-24T20:55:46.646Z,14.07
2019-01-24T20:58:14.769Z,14.77
2019-01-24T21:00:43.277Z,17.87
2019-01-24T21:03:11.349Z,15.43
2019-01-24T21:05:39.320Z,17.07
2019-01-24T21:08:07.420Z,15.93
2019-01-24T21:10:35.769Z,15.37
2019-01-24T21:13:04.170Z,15.57
2019-01-24T21:15:32.427Z,16.53
2019-01-24T21:18:00.647Z,16.57
2019-01-24T21:20:28.982Z,15.40
2019-01-24T21:23:03.800Z,16.67
2019-01-24T21:25:32.367Z,16.97
2019-01-24T21:28:02.189Z,18.70
2019-01-24T21:30:31.897Z,17.97
2019-01-24T21:32:59.986Z,17.97
2019-01-24T21:35:28.297Z,20.83
2019-01-24T21:37:56.541Z,19.10
2019-01-24T21:40:24.708Z,22.40
2019-01-24T21:42:52.745Z,22.03
2019-01-24T21:45:25.291Z,39.40
2019-01-24T21:47:53.311Z,30.10
2019-01-24T21:50:26.764Z,22.30
2019-01-24T21:53:01.216Z,20.70
2019-01-24T21:55:32.307Z,24.50
2019-01-24T21:58:02.420Z,20.87
2019-01-24T22:00:31.017Z,16.40
2019-01-24T22:02:59.270Z,15.57
2019-01-24T22:05:27.368Z,17.33
2019-01-24T22:07:58.352Z,19.80
2019-01-24T22:10:27.170Z,14.27
2019-01-24T22:12:55.227Z,13.63
2019-01-24T22:15:25.023Z,14.57
2019-01-24T22:17:53.164Z,16.13
2019-01-24T22:20:21.189Z,16.37
2019-01-24T22:22:49.313Z,13.80
2019-01-24T22:25:18.721Z,14.03
2019-01-24T22:27:47.272Z,17.53
2019-01-24T22:30:23.559Z,13.30
2019-01-24T22:32:51.544Z,13.43
2019-01-24T22:35:19.884Z,13.40
2019-01-24T22:37:48.550Z,14.13
2019-01-24T22:40:16.792Z,13.93
2019-01-24T22:42:46.232Z,13.30
2019-01-24T22:45:15.995Z,13.97
2019-01-24T22:47:44.138Z,12.87
2019-01-24T22:50:12.814Z,14.53
2019-01-24T22:52:41.132Z,16.03
2019-01-24T22:55:10.091Z,13.83
2019-01-24T22:57:38.166Z,14.00
2019-01-24T23:00:12.081Z,15.73
2019-01-24T23:02:40.330Z,14.83
2019-01-24T23:05:08.694Z,15.90
2019-01-24T23:07:37.019Z,13.73
2019-01-24T23:10:07.992Z,13.27
2019-01-24T23:12:35.756Z,13.47
2019-01-24T23:15:05.144Z,13.63
2019-01-24T23:17:34.718Z,14.30
2019-01-24T23:20:02.903Z,15.73
2019-01-24T23:22:31.307Z,13.70
2019-01-24T23:24:59.608Z,14.27
2019-01-24T23:27:28.763Z,17.53
2019-01-24T23:29:57.727Z,24.00
2019-01-24T23:32:26.800Z,14.73
2019-01-24T23:34:57.183Z,25.63
2019-01-24T23:37:25.947Z,14.47
2019-01-24T23:39:54.999Z,14.63
2019-01-24T23:42:29.539Z,13.77
2019-01-24T23:44:58.183Z,13.27
2019-01-24T23:47:31.248Z,12.67
2019-01-24T23:49:59.855Z,13.17
2019-01-24T23:52:28.246Z,13.37
2019-01-24T23:54:56.306Z,12.50
2019-01-24T23:57:25.046Z,12.93
2019-01-24T23:59:53.203Z,12.73
